Time;durP1;ratioP1;P1;durP2;ratioP2;P2;SDS_P1;SDS_P2;PMS_P1;PMS_P2;Temp;Humidity;BMP_temperature;BMP_pressure;BME280_temperature;BME280_humidity;BME280_pressure;Samples;Min_cycle;Max_cycle;Signal;HPM_P1;HPM_P2
2023/12/25 00:01:46;;;;;;;;;;;11.30;95.50;;;;;;5076998;28;19915;-77
2023/12/25 00:04:12;;;;;;;;;;;11.20;95.40;;;;;;5075998;28;20248;-77
2023/12/25 00:06:37;;;;;;;;;;;11.20;95.50;;;;;;5076139;28;19915;-78
2023/12/25 00:09:03;;;;;;;;;;;11.10;95.50;;;;;;5059323;28;19912;-77
2023/12/25 00:11:28;;;;;;;;;;;11.10;95.50;;;;;;5075987;28;19912;-77
2023/12/25 00:13:55;;;;;;;;;;;11.10;95.50;;;;;;5059073;28;19908;-77
2023/12/25 00:16:21;;;;;;;;;;;11.00;95.50;;;;;;5076083;28;19973;-77
2023/12/25 00:18:46;;;;;;;;;;;11.00;95.50;;;;;;5059377;28;19932;-77
2023/12/25 00:21:12;;;;;;;;;;;10.90;95.50;;;;;;5059251;28;19974;-77
2023/12/25 00:23:37;;;;;;;;;;;10.90;95.50;;;;;;5075642;28;19908;-77
2023/12/25 00:26:03;;;;;;;;;;;10.90;95.50;;;;;;5075792;28;19947;-77
2023/12/25 00:28:29;;;;;;;;;;;10.90;95.60;;;;;;5075591;28;19965;-77
2023/12/25 00:30:54;;;;;;;;;;;10.90;95.80;;;;;;5059171;28;19908;-77
2023/12/25 00:33:20;;;;;;;;;;;10.90;95.60;;;;;;5076026;28;20442;-77
2023/12/25 00:35:45;;;;;;;;;;;10.90;95.60;;;;;;5058543;28;19908;-77
2023/12/25 00:38:11;;;;;;;;;;;10.90;95.50;;;;;;5059269;28;19957;-77
2023/12/25 00:40:36;;;;;;;;;;;10.80;95.50;;;;;;5076117;28;19908;-77
2023/12/25 00:43:02;;;;;;;;;;;10.80;95.80;;;;;;5075947;28;19957;-77
2023/12/25 00:45:27;;;;;;;;;;;10.70;95.60;;;;;;5059125;28;19915;-77
2023/12/25 00:47:53;;;;;;;;;;;10.70;95.70;;;;;;5094125;28;20272;-77
2023/12/25 00:50:19;;;;;;;;;;;10.80;95.70;;;;;;5075839;28;19935;-77
2023/12/25 00:52:44;;;;;;;;;;;10.90;95.70;;;;;;5059014;28;19997;-77
2023/12/25 00:55:10;;;;;;;;;;;10.90;95.70;;;;;;5059210;28;19908;-77
2023/12/25 00:57:35;;;;;;;;;;;11.00;95.70;;;;;;5093839;28;19912;-77
2023/12/25 01:00:01;;;;;;;;;;;11.00;95.60;;;;;;5058749;28;20359;-77
2023/12/25 01:02:26;;;;;;;;;;;11.10;95.70;;;;;;5093573;28;20378;-77
2023/12/25 01:04:52;;;;;;;;;;;11.10;95.70;;;;;;5058841;28;20007;-77
2023/12/25 01:07:17;;;;;;;;;;;11.10;95.70;;;;;;5058833;28;20427;-77
2023/12/25 01:09:43;;;;;;;;;;;11.20;95.70;;;;;;5093620;28;19968;-77
2023/12/25 01:12:09;;;;;;;;;;;11.20;95.60;;;;;;5058823;28;19912;-77
2023/12/25 01:14:35;;;;;;;;;;;11.20;95.60;;;;;;5093572;28;19912;-77
2023/12/25 01:17:00;;;;;;;;;;;11.20;95.60;;;;;;5075361;28;19908;-77
2023/12/25 01:19:26;;;;;;;;;;;11.20;95.60;;;;;;5075404;28;19908;-77
2023/12/25 01:21:51;;;;;;;;;;;11.20;95.60;;;;;;5093455;28;19981;-77
2023/12/25 01:24:17;;;;;;;;;;;11.20;95.60;;;;;;5058515;28;19908;-77
2023/12/25 01:26:42;;;;;;;;;;;11.20;95.60;;;;;;5075085;28;20155;-77
2023/12/25 01:29:08;;;;;;;;;;;11.20;95.60;;;;;;5093274;28;19916;-77
2023/12/25 01:31:35;;;;;;;;;;;11.20;95.60;;;;;;5093254;28;19946;-77
2023/12/25 01:34:01;;;;;;;;;;;11.20;95.60;;;;;;5093416;28;19908;-77
2023/12/25 01:36:27;;;;;;;;;;;11.20;95.60;;;;;;5074968;28;19908;-77
2023/12/25 01:38:52;;;;;;;;;;;11.10;95.60;;;;;;5075016;28;19908;-77
2023/12/25 01:41:19;;;;;;;;;;;11.10;95.70;;;;;;5058272;28;19919;-77
2023/12/25 01:43:45;;;;;;;;;;;11.10;95.70;;;;;;5092956;28;20360;-77
2023/12/25 01:46:11;;;;;;;;;;;11.20;95.70;;;;;;5074818;28;19999;-76
2023/12/25 01:48:36;;;;;;;;;;;11.20;95.70;;;;;;5073998;28;19912;-77
2023/12/25 01:51:03;;;;;;;;;;;11.20;95.70;;;;;;5057938;28;19916;-77
2023/12/25 01:53:29;;;;;;;;;;;11.20;95.60;;;;;;5074558;28;20287;-76
2023/12/25 01:55:55;;;;;;;;;;;11.20;95.60;;;;;;5074782;28;19912;-76
2023/12/25 01:58:21;;;;;;;;;;;11.20;95.60;;;;;;5092770;28;19904;-77
2023/12/25 02:00:46;;;;;;;;;;;11.10;95.80;;;;;;5074553;28;19915;-76
2023/12/25 02:03:12;;;;;;;;;;;11.20;95.60;;;;;;5057867;28;19947;-76
2023/12/25 02:05:37;;;;;;;;;;;11.10;95.60;;;;;;5058023;28;19953;-77
2023/12/25 02:08:03;;;;;;;;;;;11.20;95.60;;;;;;5074637;28;20006;-76
2023/12/25 02:10:29;;;;;;;;;;;11.20;95.60;;;;;;5057927;28;19965;-76
2023/12/25 02:12:55;;;;;;;;;;;11.20;95.60;;;;;;5074265;28;19908;-76
2023/12/25 02:15:21;;;;;;;;;;;11.20;95.60;;;;;;5092443;28;20002;-76
2023/12/25 02:17:48;;;;;;;;;;;11.20;95.60;;;;;;5074240;28;19915;-76
2023/12/25 02:20:14;;;;;;;;;;;11.20;95.60;;;;;;5092384;28;20354;-77
2023/12/25 02:22:40;;;;;;;;;;;11.10;95.50;;;;;;5092280;28;19915;-77
2023/12/25 02:25:27;;;;;;;;;;;11.10;95.50;;;;;;5092399;28;20336;-77
2023/12/25 02:27:52;;;;;;;;;;;11.10;95.60;;;;;;5073585;28;19969;-76
2023/12/25 02:30:18;;;;;;;;;;;11.00;95.60;;;;;;5074044;28;19912;-76
2023/12/25 02:32:44;;;;;;;;;;;11.00;95.60;;;;;;5092174;28;19914;-76
2023/12/25 02:35:09;;;;;;;;;;;11.00;95.60;;;;;;5074029;28;19908;-76
2023/12/25 02:37:35;;;;;;;;;;;11.00;95.60;;;;;;5057272;28;19915;-76
2023/12/25 02:40:00;;;;;;;;;;;11.00;95.60;;;;;;5073866;28;19916;-77
2023/12/25 02:42:26;;;;;;;;;;;11.00;95.60;;;;;;5073806;28;19908;-76
2023/12/25 02:44:51;;;;;;;;;;;10.90;95.60;;;;;;5057063;28;20400;-76
2023/12/25 02:47:17;;;;;;;;;;;10.90;95.60;;;;;;5057065;28;20386;-76
2023/12/25 02:49:42;;;;;;;;;;;10.80;95.60;;;;;;5073729;28;19919;-76
2023/12/25 02:52:08;;;;;;;;;;;10.70;95.60;;;;;;5073723;28;19912;-77
2023/12/25 02:54:33;;;;;;;;;;;10.80;95.70;;;;;;5073960;28;19922;-76
2023/12/25 02:56:59;;;;;;;;;;;10.80;95.70;;;;;;5057076;28;19912;-76
2023/12/25 02:59:25;;;;;;;;;;;10.80;95.70;;;;;;5056773;28;19918;-76
2023/12/25 03:01:50;;;;;;;;;;;10.90;95.70;;;;;;5056929;28;20386;-76
2023/12/25 03:04:16;;;;;;;;;;;10.90;95.70;;;;;;5073595;28;19912;-77
2023/12/25 03:06:41;;;;;;;;;;;10.80;95.60;;;;;;5073645;28;20010;-76
2023/12/25 03:09:07;;;;;;;;;;;10.80;95.60;;;;;;5056915;28;19916;-76
2023/12/25 03:11:32;;;;;;;;;;;10.80;95.60;;;;;;5091758;28;19961;-76
2023/12/25 03:13:59;;;;;;;;;;;10.80;95.60;;;;;;5073326;28;19908;-76
2023/12/25 03:16:25;;;;;;;;;;;10.80;95.70;;;;;;5073478;28;19904;-76
2023/12/25 03:18:50;;;;;;;;;;;10.90;95.70;;;;;;5056749;28;19908;-76
2023/12/25 03:21:16;;;;;;;;;;;10.90;95.70;;;;;;5073560;28;20451;-76
2023/12/25 03:23:42;;;;;;;;;;;10.90;95.70;;;;;;5056743;28;20273;-76
2023/12/25 03:26:07;;;;;;;;;;;11.00;95.70;;;;;;5091340;28;19919;-77
2023/12/25 03:28:33;;;;;;;;;;;11.00;95.70;;;;;;5073429;28;20382;-76
2023/12/25 03:30:58;;;;;;;;;;;11.00;95.60;;;;;;5073201;28;19915;-76
2023/12/25 03:33:24;;;;;;;;;;;11.00;95.50;;;;;;5091339;28;19914;-76
2023/12/25 03:35:50;;;;;;;;;;;11.00;95.50;;;;;;5056462;28;19979;-76
2023/12/25 03:38:17;;;;;;;;;;;10.90;95.50;;;;;;5056609;28;20560;-76
2023/12/25 03:40:42;;;;;;;;;;;10.90;95.60;;;;;;5091469;28;19961;-76
2023/12/25 03:43:08;;;;;;;;;;;10.80;95.60;;;;;;5073156;28;20367;-76
2023/12/25 03:45:33;;;;;;;;;;;10.80;95.60;;;;;;5073325;28;19931;-76
2023/12/25 03:47:59;;;;;;;;;;;10.90;95.70;;;;;;5073132;28;19938;-76
2023/12/25 03:50:25;;;;;;;;;;;10.90;95.60;;;;;;5091277;28;19912;-76
2023/12/25 03:52:50;;;;;;;;;;;10.80;95.50;;;;;;5091205;28;20337;-77
2023/12/25 03:55:16;;;;;;;;;;;10.80;95.50;;;;;;5056315;28;19923;-77
2023/12/25 03:57:42;;;;;;;;;;;10.70;95.60;;;;;;5072959;28;19912;-76
2023/12/25 04:00:08;;;;;;;;;;;10.70;95.60;;;;;;5056391;28;20355;-76
2023/12/25 04:02:33;;;;;;;;;;;10.60;95.60;;;;;;5073052;28;19931;-76
2023/12/25 04:04:59;;;;;;;;;;;10.60;95.60;;;;;;5073248;28;20295;-76
2023/12/25 04:07:24;;;;;;;;;;;10.60;95.60;;;;;;5056254;28;19909;-76
2023/12/25 04:09:50;;;;;;;;;;;10.60;95.70;;;;;;5072941;28;20371;-75
2023/12/25 04:12:16;;;;;;;;;;;10.60;95.80;;;;;;5075663;28;19973;-76
2023/12/25 04:14:41;;;;;;;;;;;10.60;95.80;;;;;;5076568;28;19916;-75
2023/12/25 04:17:07;;;;;;;;;;;10.60;95.70;;;;;;5094833;28;20251;-75
2023/12/25 04:19:32;;;;;;;;;;;10.60;95.60;;;;;;5076471;28;19953;-75
2023/12/25 04:21:58;;;;;;;;;;;10.60;95.60;;;;;;5094664;28;19908;-76
2023/12/25 04:24:24;;;;;;;;;;;10.50;95.60;;;;;;5059643;28;19912;-76
2023/12/25 04:26:49;;;;;;;;;;;10.50;95.70;;;;;;5076103;28;20295;-75
2023/12/25 04:29:15;;;;;;;;;;;10.50;95.60;;;;;;5076607;28;19929;-76
2023/12/25 04:31:40;;;;;;;;;;;10.40;95.60;;;;;;5076469;28;20383;-76
2023/12/25 04:34:06;;;;;;;;;;;10.40;95.70;;;;;;5094355;28;19908;-76
2023/12/25 04:36:31;;;;;;;;;;;10.50;95.80;;;;;;5076197;28;19952;-76
2023/12/25 04:39:01;;;;;;;;;;;10.60;95.80;;;;;;5076124;28;19951;-76
2023/12/25 04:41:27;;;;;;;;;;;10.60;95.80;;;;;;5059773;28;19915;-76
2023/12/25 04:43:53;;;;;;;;;;;10.70;95.70;;;;;;5076015;28;20546;-76
2023/12/25 04:46:19;;;;;;;;;;;10.70;95.60;;;;;;5094178;28;20011;-76
2023/12/25 04:48:44;;;;;;;;;;;10.70;95.60;;;;;;5075914;28;20364;-75
2023/12/25 04:51:10;;;;;;;;;;;10.80;95.60;;;;;;5094040;28;20127;-76
2023/12/25 04:53:36;;;;;;;;;;;10.80;95.60;;;;;;5075639;28;20370;-76
2023/12/25 04:56:02;;;;;;;;;;;10.80;95.60;;;;;;5093882;28;20349;-76
2023/12/25 04:58:27;;;;;;;;;;;10.80;95.60;;;;;;5094036;28;20320;-76
2023/12/25 05:00:53;;;;;;;;;;;10.80;95.50;;;;;;5093849;28;19908;-77
2023/12/25 05:03:19;;;;;;;;;;;10.80;95.50;;;;;;5058843;28;19912;-76
2023/12/25 05:05:44;;;;;;;;;;;10.80;95.50;;;;;;5075693;28;19964;-76
2023/12/25 05:08:10;;;;;;;;;;;10.70;95.50;;;;;;5075701;28;19907;-76
2023/12/25 05:10:35;;;;;;;;;;;10.60;95.50;;;;;;5075510;28;19923;-76
2023/12/25 05:13:01;;;;;;;;;;;10.70;95.60;;;;;;5075510;28;20284;-76
2023/12/25 05:15:27;;;;;;;;;;;10.70;95.60;;;;;;5075676;28;19915;-77
2023/12/25 05:17:53;;;;;;;;;;;10.60;95.50;;;;;;5075657;28;19911;-76
2023/12/25 05:20:18;;;;;;;;;;;10.60;95.50;;;;;;5058686;28;19995;-76
2023/12/25 05:22:44;;;;;;;;;;;10.60;95.60;;;;;;5075156;28;19998;-76
2023/12/25 05:25:10;;;;;;;;;;;10.60;95.60;;;;;;5058551;28;19908;-75
2023/12/25 05:27:35;;;;;;;;;;;10.60;95.60;;;;;;5058419;28;20411;-76
2023/12/25 05:30:01;;;;;;;;;;;10.70;95.60;;;;;;5075093;28;19912;-76
2023/12/25 05:32:28;;;;;;;;;;;10.60;95.60;;;;;;5075011;28;19912;-76
2023/12/25 05:34:54;;;;;;;;;;;10.60;95.60;;;;;;5093207;28;19908;-76
2023/12/25 05:37:20;;;;;;;;;;;10.70;95.60;;;;;;5058609;28;19912;-76
2023/12/25 05:39:45;;;;;;;;;;;10.70;95.60;;;;;;5074964;28;19912;-76
2023/12/25 05:42:11;;;;;;;;;;;10.70;95.60;;;;;;5093018;28;19916;-76
2023/12/25 05:44:36;;;;;;;;;;;10.60;95.60;;;;;;5093112;28;19915;-75
2023/12/25 05:47:02;;;;;;;;;;;10.60;95.60;;;;;;5074948;28;19954;-76
2023/12/25 05:49:29;;;;;;;;;;;10.60;95.60;;;;;;5092958;28;20269;-75
2023/12/25 05:51:54;;;;;;;;;;;10.70;95.70;;;;;;5074764;28;19908;-75
2023/12/25 05:54:20;;;;;;;;;;;10.70;95.70;;;;;;5092673;28;19908;-76
2023/12/25 05:56:45;;;;;;;;;;;10.80;95.70;;;;;;5074658;28;19908;-76
2023/12/25 05:59:11;;;;;;;;;;;10.80;95.70;;;;;;5092854;28;19915;-76
2023/12/25 06:01:36;;;;;;;;;;;10.80;95.70;;;;;;5057908;28;20290;-76
2023/12/25 06:04:02;;;;;;;;;;;10.80;95.60;;;;;;5057804;28;20350;-76
2023/12/25 06:06:28;;;;;;;;;;;10.80;95.60;;;;;;5057855;28;19916;-76
2023/12/25 06:08:53;;;;;;;;;;;10.80;95.60;;;;;;5092546;28;19912;-76
2023/12/25 06:11:19;;;;;;;;;;;10.80;95.60;;;;;;5074472;28;19916;-76
2023/12/25 06:13:44;;;;;;;;;;;10.70;95.60;;;;;;5074270;28;19912;-76
2023/12/25 06:16:10;;;;;;;;;;;10.60;95.50;;;;;;5092461;28;19909;-76
2023/12/25 06:18:36;;;;;;;;;;;10.60;95.80;;;;;;5074168;28;19912;-76
2023/12/25 06:21:01;;;;;;;;;;;10.60;95.50;;;;;;5057605;28;19908;-76
2023/12/25 06:23:27;;;;;;;;;;;10.50;95.50;;;;;;5057319;28;19969;-76
2023/12/25 06:25:53;;;;;;;;;;;10.40;95.50;;;;;;5057280;28;20352;-76
2023/12/25 06:28:18;;;;;;;;;;;10.40;95.60;;;;;;5074268;28;20287;-76
2023/12/25 06:30:44;;;;;;;;;;;10.30;95.60;;;;;;5057211;28;20273;-76
2023/12/25 06:33:09;;;;;;;;;;;10.30;95.60;;;;;;5091755;28;19916;-76
2023/12/25 06:35:35;;;;;;;;;;;10.20;95.50;;;;;;5073854;28;19959;-76
2023/12/25 06:38:02;;;;;;;;;;;10.20;95.50;;;;;;5074101;28;19920;-76
2023/12/25 06:40:27;;;;;;;;;;;10.20;95.50;;;;;;5074049;28;19919;-76
2023/12/25 06:42:53;;;;;;;;;;;10.10;95.50;;;;;;5057288;28;19908;-75
2023/12/25 06:45:18;;;;;;;;;;;10.10;95.50;;;;;;5073727;28;19938;-76
2023/12/25 06:47:44;;;;;;;;;;;10.10;95.60;;;;;;5092020;28;19911;-75
2023/12/25 06:50:09;;;;;;;;;;;10.00;95.60;;;;;;5056988;28;19918;-75
2023/12/25 06:52:35;;;;;;;;;;;10.00;95.60;;;;;;5056919;28;19985;-75
2023/12/25 06:55:01;;;;;;;;;;;10.00;95.60;;;;;;5092089;28;19912;-76
2023/12/25 06:57:26;;;;;;;;;;;10.00;95.60;;;;;;5091878;28;19904;-76
2023/12/25 06:59:52;;;;;;;;;;;10.00;95.60;;;;;;5056918;28;19931;-75
2023/12/25 07:02:18;;;;;;;;;;;10.00;95.50;;;;;;5091542;28;19908;-75
2023/12/25 07:04:43;;;;;;;;;;;10.00;95.50;;;;;;5091751;28;19935;-76
2023/12/25 07:07:09;;;;;;;;;;;9.90;95.50;;;;;;5073641;28;19927;-76
2023/12/25 07:09:35;;;;;;;;;;;9.90;95.50;;;;;;5073345;28;19912;-76
2023/12/25 07:12:02;;;;;;;;;;;9.90;95.50;;;;;;5056949;28;19915;-76
2023/12/25 07:14:27;;;;;;;;;;;9.90;95.60;;;;;;5073408;28;19914;-75
2023/12/25 07:16:53;;;;;;;;;;;9.90;95.60;;;;;;5073392;28;20271;-76
2023/12/25 07:19:19;;;;;;;;;;;9.90;95.60;;;;;;5056734;28;19915;-76
2023/12/25 07:21:44;;;;;;;;;;;9.90;95.60;;;;;;5091595;28;19999;-75
2023/12/25 07:24:10;;;;;;;;;;;10.00;95.70;;;;;;5091446;28;20371;-75
2023/12/25 07:26:35;;;;;;;;;;;10.00;95.60;;;;;;5091328;28;20265;-75
2023/12/25 07:29:01;;;;;;;;;;;10.00;95.60;;;;;;5056629;28;19920;-76
2023/12/25 07:31:26;;;;;;;;;;;10.00;95.60;;;;;;5091471;28;20003;-75
2023/12/25 07:33:53;;;;;;;;;;;10.10;95.60;;;;;;5056471;28;20276;-76
2023/12/25 07:36:19;;;;;;;;;;;10.10;95.60;;;;;;5073387;28;19919;-75
2023/12/25 07:38:45;;;;;;;;;;;10.10;95.60;;;;;;5091296;28;19908;-76
2023/12/25 07:41:11;;;;;;;;;;;10.10;95.60;;;;;;5091377;28;19998;-76
2023/12/25 07:43:37;;;;;;;;;;;10.10;95.60;;;;;;5073220;28;19999;-75
2023/12/25 07:46:06;;;;;;;;;;;10.10;95.50;;;;;;5074302;28;19935;-75
2023/12/25 07:48:31;;;;;;;;;;;10.10;95.50;;;;;;5077017;28;20331;-75
2023/12/25 07:50:57;;;;;;;;;;;10.10;95.50;;;;;;5060172;28;19908;-75
2023/12/25 07:53:22;;;;;;;;;;;10.10;95.60;;;;;;5077021;28;19954;-76
2023/12/25 07:55:48;;;;;;;;;;;10.10;95.60;;;;;;5060330;28;19923;-76
2023/12/25 07:58:14;;;;;;;;;;;10.10;95.60;;;;;;5076914;28;20484;-75
2023/12/25 08:00:42;;;;;;;;;;;10.10;95.60;;;;;;5095004;28;19912;-75
2023/12/25 08:03:08;;;;;;;;;;;10.10;95.60;;;;;;5095000;28;19908;-75
2023/12/25 08:05:34;;;;;;;;;;;10.10;95.60;;;;;;5076769;28;19915;-75
2023/12/25 08:08:00;;;;;;;;;;;10.10;95.60;;;;;;5076766;28;20014;-76
2023/12/25 08:10:25;;;;;;;;;;;10.20;95.70;;;;;;5076580;28;20382;-76
2023/12/25 08:12:51;;;;;;;;;;;10.20;95.70;;;;;;5076636;28;19904;-76
2023/12/25 08:15:16;;;;;;;;;;;10.30;95.70;;;;;;5094881;28;20002;-75
2023/12/25 08:17:42;;;;;;;;;;;10.30;95.70;;;;;;5094835;28;20590;-76
2023/12/25 08:20:09;;;;;;;;;;;10.40;95.90;;;;;;5076685;28;19937;-76
2023/12/25 08:22:35;;;;;;;;;;;10.40;95.70;;;;;;5094624;28;19908;-75
2023/12/25 08:25:01;;;;;;;;;;;10.40;95.70;;;;;;5076438;28;19999;-75
2023/12/25 08:27:26;;;;;;;;;;;10.50;95.60;;;;;;5059482;28;19920;-76
2023/12/25 08:29:52;;;;;;;;;;;10.50;95.60;;;;;;5076070;28;19943;-75
2023/12/25 08:32:18;;;;;;;;;;;10.50;95.60;;;;;;5059707;28;19944;-75
2023/12/25 08:34:44;;;;;;;;;;;10.50;95.60;;;;;;5076246;28;19918;-76
2023/12/25 08:37:10;;;;;;;;;;;10.50;95.60;;;;;;5076186;28;19970;-76
2023/12/25 08:39:36;;;;;;;;;;;10.50;95.50;;;;;;5059407;28;20356;-76
2023/12/25 08:42:03;;;;;;;;;;;10.50;95.40;;;;;;5076263;28;19947;-76
2023/12/25 08:44:28;;;;;;;;;;;10.40;95.40;;;;;;5076292;28;19920;-76
2023/12/25 08:46:54;;;;;;;;;;;10.40;95.40;;;;;;5075874;28;19904;-76
2023/12/25 08:49:19;;;;;;;;;;;10.30;95.40;;;;;;5059063;28;20260;-76
2023/12/25 08:51:45;;;;;;;;;;;10.30;95.40;;;;;;5075971;28;19908;-77
2023/12/25 08:54:11;;;;;;;;;;;10.30;95.50;;;;;;5075804;28;19958;-77
2023/12/25 08:56:36;;;;;;;;;;;10.20;95.50;;;;;;5093666;28;19908;-76
2023/12/25 08:59:05;;;;;;;;;;;10.20;95.50;;;;;;5059068;28;19931;-76
2023/12/25 09:01:31;;;;;;;;;;;10.20;95.50;;;;;;5093875;28;19904;-76
2023/12/25 09:03:57;;;;;;;;;;;10.20;95.50;;;;;;5076021;28;20368;-76
2023/12/25 09:06:23;;;;;;;;;;;10.30;95.60;;;;;;5058922;28;19912;-76
2023/12/25 09:08:49;;;;;;;;;;;10.30;95.60;;;;;;5093704;28;19919;-77
2023/12/25 09:11:15;;;;;;;;;;;10.30;95.60;;;;;;5075479;28;20326;-76
2023/12/25 09:13:40;;;;;;;;;;;10.30;95.50;;;;;;5075441;28;19962;-76
2023/12/25 09:16:06;;;;;;;;;;;10.30;95.60;;;;;;5058765;28;19908;-76
2023/12/25 09:18:31;;;;;;;;;;;10.30;95.50;;;;;;5075212;28;19918;-76
2023/12/25 09:20:57;;;;;;;;;;;10.40;95.60;;;;;;5075098;28;20356;-76
2023/12/25 09:23:23;;;;;;;;;;;10.40;95.60;;;;;;5075155;28;19937;-77
2023/12/25 09:25:49;;;;;;;;;;;10.40;95.70;;;;;;5074733;28;19947;-76
2023/12/25 09:28:14;;;;;;;;;;;10.40;95.50;;;;;;5074533;28;19920;-76
2023/12/25 09:30:40;;;;;;;;;;;10.40;95.50;;;;;;5092868;28;20363;-76
2023/12/25 09:33:06;;;;;;;;;;;10.50;95.60;;;;;;5093168;28;19908;-76
2023/12/25 09:35:32;;;;;;;;;;;10.50;95.60;;;;;;5093323;28;20257;-76
2023/12/25 09:37:57;;;;;;;;;;;10.50;95.60;;;;;;5074594;28;19915;-76
2023/12/25 09:40:23;;;;;;;;;;;10.50;95.50;;;;;;5092826;28;19908;-76
2023/12/25 09:42:51;;;;;;;;;;;10.50;95.50;;;;;;5074358;28;19908;-76
2023/12/25 09:45:17;;;;;;;;;;;10.50;95.60;;;;;;5092449;28;19904;-77
2023/12/25 09:47:44;;;;;;;;;;;10.50;95.60;;;;;;5074224;28;20276;-76
2023/12/25 09:50:10;;;;;;;;;;;10.50;95.60;;;;;;5092506;28;20423;-76
2023/12/25 09:52:35;;;;;;;;;;;10.60;95.60;;;;;;5057514;28;19993;-76
2023/12/25 09:55:01;;;;;;;;;;;10.60;95.60;;;;;;5074413;28;19904;-76
2023/12/25 09:57:29;;;;;;;;;;;10.70;95.60;;;;;;5057636;28;20197;-76
2023/12/25 09:59:55;;;;;;;;;;;10.60;95.60;;;;;;5074478;28;19991;-76
2023/12/25 10:02:22;;;;;;;;;;;10.70;95.60;;;;;;5074105;28;19912;-76
2023/12/25 10:04:48;;;;;;;;;;;10.60;95.60;;;;;;5074535;28;19995;-76
2023/12/25 10:07:13;;;;;;;;;;;10.60;95.50;;;;;;5073878;28;19908;-76
2023/12/25 10:09:39;;;;;;;;;;;10.60;95.50;;;;;;5091438;28;19972;-76
2023/12/25 10:12:06;;;;;;;;;;;10.60;95.50;;;;;;5073482;28;19911;-76
2023/12/25 10:14:31;;;;;;;;;;;10.50;95.50;;;;;;5056792;28;19908;-76
2023/12/25 10:16:58;;;;;;;;;;;10.50;95.50;;;;;;5056610;28;20386;-77
2023/12/25 10:19:24;;;;;;;;;;;10.50;95.50;;;;;;5073891;28;19999;-76
2023/12/25 10:21:52;;;;;;;;;;;10.50;95.50;;;;;;5056722;28;19999;-76
2023/12/25 10:24:18;;;;;;;;;;;10.50;95.50;;;;;;5073811;28;19916;-76
2023/12/25 10:26:43;;;;;;;;;;;10.50;95.50;;;;;;5056614;28;19930;-76
2023/12/25 10:29:09;;;;;;;;;;;10.60;95.50;;;;;;5073114;28;20285;-76
2023/12/25 10:31:38;;;;;;;;;;;10.60;95.50;;;;;;5073824;28;20331;-76
2023/12/25 10:34:04;;;;;;;;;;;10.60;95.60;;;;;;5057175;28;19908;-76
2023/12/25 10:36:30;;;;;;;;;;;10.60;95.60;;;;;;5073899;28;19991;-76
2023/12/25 10:38:56;;;;;;;;;;;10.70;95.50;;;;;;5073679;28;19915;-76
2023/12/25 10:41:24;;;;;;;;;;;10.70;95.50;;;;;;5073650;28;19908;-76
2023/12/25 10:43:52;;;;;;;;;;;10.70;95.50;;;;;;5073566;28;20268;-76
2023/12/25 10:46:19;;;;;;;;;;;10.70;95.60;;;;;;5073717;28;19957;-76
2023/12/25 10:48:49;;;;;;;;;;;10.80;95.60;;;;;;5091681;28;19903;-76
2023/12/25 10:51:17;;;;;;;;;;;10.80;95.60;;;;;;5057166;28;20309;-76
2023/12/25 10:53:44;;;;;;;;;;;10.90;95.60;;;;;;5091456;28;19904;-76
2023/12/25 10:56:09;;;;;;;;;;;10.90;95.60;;;;;;5073096;28;19904;-76
2023/12/25 10:58:35;;;;;;;;;;;11.00;95.60;;;;;;5091517;28;19912;-76
2023/12/25 11:01:01;;;;;;;;;;;11.00;95.60;;;;;;5073173;28;19914;-76
2023/12/25 11:03:27;;;;;;;;;;;11.00;95.60;;;;;;5056448;28;19908;-76
2023/12/25 11:05:53;;;;;;;;;;;11.00;95.60;;;;;;5073223;28;19954;-76
2023/12/25 11:08:19;;;;;;;;;;;11.00;95.60;;;;;;5072971;28;19912;-76
2023/12/25 11:10:45;;;;;;;;;;;11.10;95.70;;;;;;5091256;28;19919;-76
2023/12/25 11:13:12;;;;;;;;;;;11.10;95.70;;;;;;5090691;28;19908;-77
2023/12/25 11:15:38;;;;;;;;;;;11.10;95.70;;;;;;5072825;28;20032;-76
2023/12/25 11:18:05;;;;;;;;;;;11.10;95.70;;;;;;5056321;28;19956;-76
2023/12/25 11:20:31;;;;;;;;;;;11.20;95.80;;;;;;5091719;28;19949;-76
2023/12/25 11:22:57;;;;;;;;;;;11.30;95.80;;;;;;5091275;28;19904;-75
2023/12/25 11:25:23;;;;;;;;;;;11.30;95.70;;;;;;5072983;28;20383;-76
2023/12/25 11:27:52;;;;;;;;;;;11.40;95.70;;;;;;5072573;28;19924;-76
2023/12/25 11:30:19;;;;;;;;;;;11.40;95.60;;;;;;5072735;28;19908;-77
2023/12/25 11:32:48;;;;;;;;;;;11.30;95.50;;;;;;5072990;28;19994;-77
2023/12/25 11:35:14;;;;;;;;;;;11.30;95.40;;;;;;5073073;28;19994;-77
2023/12/25 11:37:40;;;;;;;;;;;11.20;95.40;;;;;;5073015;28;20382;-77
2023/12/25 11:40:06;;;;;;;;;;;11.10;95.40;;;;;;5056091;28;19908;-77
2023/12/25 11:42:38;;;;;;;;;;;11.10;95.50;;;;;;5072534;28;19951;-77
2023/12/25 11:45:11;;;;;;;;;;;11.00;95.50;;;;;;5072644;28;19915;-77
2023/12/25 11:47:42;;;;;;;;;;;11.00;95.50;;;;;;5090607;28;20387;-77
2023/12/25 11:50:09;;;;;;;;;;;11.00;95.60;;;;;;5090657;28;19912;-77
2023/12/25 11:52:44;;;;;;;;;;;11.00;95.50;;;;;;5072504;28;19950;-76
2023/12/25 11:55:12;;;;;;;;;;;11.00;95.60;;;;;;5072680;28;20647;-77
2023/12/25 11:57:38;;;;;;;;;;;11.00;95.60;;;;;;5072657;28;19908;-77
2023/12/25 12:00:04;;;;;;;;;;;11.00;95.60;;;;;;5072651;28;19957;-77
2023/12/25 12:02:29;;;;;;;;;;;11.00;95.60;;;;;;5055907;28;20383;-76
2023/12/25 12:04:55;;;;;;;;;;;11.00;95.60;;;;;;5055829;28;20291;-76
2023/12/25 12:07:21;;;;;;;;;;;11.10;95.60;;;;;;5072680;28;19990;-77
2023/12/25 12:09:46;;;;;;;;;;;11.10;95.60;;;;;;5072468;28;19916;-77
2023/12/25 12:12:12;;;;;;;;;;;11.10;95.60;;;;;;5055771;28;19961;-77
2023/12/25 12:14:37;;;;;;;;;;;11.10;95.70;;;;;;5090649;28;20313;-77
2023/12/25 12:17:03;;;;;;;;;;;11.20;95.70;;;;;;5072540;28;19912;-77
2023/12/25 12:19:29;;;;;;;;;;;11.20;95.60;;;;;;5072487;28;19999;-76
2023/12/25 12:21:55;;;;;;;;;;;11.30;95.70;;;;;;5055752;28;19908;-77
2023/12/25 12:24:25;;;;;;;;;;;11.30;95.60;;;;;;5090512;28;20011;-76
2023/12/25 12:26:51;;;;;;;;;;;11.30;95.60;;;;;;5071982;28;19916;-76
2023/12/25 12:29:16;;;;;;;;;;;11.30;95.60;;;;;;5071903;28;19918;-77
2023/12/25 12:31:42;;;;;;;;;;;11.30;95.60;;;;;;5090716;28;19950;-77
2023/12/25 12:34:08;;;;;;;;;;;11.30;95.60;;;;;;5075437;28;20375;-77
2023/12/25 12:36:33;;;;;;;;;;;11.30;95.60;;;;;;5075333;28;20075;-76
2023/12/25 12:38:59;;;;;;;;;;;11.30;95.60;;;;;;5075513;28;19916;-77
2023/12/25 12:41:25;;;;;;;;;;;11.20;95.60;;;;;;5093777;28;19908;-76
2023/12/25 12:43:57;;;;;;;;;;;11.20;95.60;;;;;;5093668;28;19904;-76
2023/12/25 12:46:22;;;;;;;;;;;11.30;95.70;;;;;;5093760;28;20250;-76
2023/12/25 12:48:48;;;;;;;;;;;11.30;95.70;;;;;;5058774;28;19916;-76
2023/12/25 12:51:13;;;;;;;;;;;11.40;96.00;;;;;;5075239;28;19912;-76
2023/12/25 12:53:39;;;;;;;;;;;11.50;95.80;;;;;;5093432;28;19912;-77
2023/12/25 12:56:05;;;;;;;;;;;11.50;95.80;;;;;;5057943;28;19914;-76
2023/12/25 12:58:30;;;;;;;;;;;11.50;95.70;;;;;;5093227;28;19908;-77
2023/12/25 13:00:57;;;;;;;;;;;11.50;95.70;;;;;;5058136;28;20160;-76
2023/12/25 13:03:23;;;;;;;;;;;11.60;95.70;;;;;;5093007;28;20318;-77
2023/12/25 13:05:48;;;;;;;;;;;11.60;95.90;;;;;;5093264;28;19908;-76
2023/12/25 13:08:14;;;;;;;;;;;11.60;95.70;;;;;;5058531;28;20007;-76
2023/12/25 13:10:39;;;;;;;;;;;11.60;95.70;;;;;;5058365;28;19915;-76
2023/12/25 13:13:05;;;;;;;;;;;11.60;95.70;;;;;;5075292;28;19908;-77
2023/12/25 13:15:30;;;;;;;;;;;11.60;95.70;;;;;;5075144;28;19943;-76
2023/12/25 13:17:56;;;;;;;;;;;11.60;95.70;;;;;;5058309;28;20292;-76
2023/12/25 13:20:21;;;;;;;;;;;11.60;95.70;;;;;;5058540;28;19914;-76
2023/12/25 13:22:47;;;;;;;;;;;11.60;95.70;;;;;;5058223;28;19912;-76
2023/12/25 13:25:12;;;;;;;;;;;11.60;95.70;;;;;;5075123;28;19908;-77
2023/12/25 13:27:38;;;;;;;;;;;11.60;95.70;;;;;;5075261;28;19919;-76
2023/12/25 13:30:04;;;;;;;;;;;11.60;95.70;;;;;;5058083;28;19969;-76
2023/12/25 13:32:30;;;;;;;;;;;11.60;95.70;;;;;;5092738;28;19911;-76
2023/12/25 13:34:55;;;;;;;;;;;11.60;95.70;;;;;;5058034;28;19919;-76
2023/12/25 13:37:21;;;;;;;;;;;11.60;95.70;;;;;;5057764;28;19916;-77
2023/12/25 13:39:46;;;;;;;;;;;11.50;95.70;;;;;;5074977;28;20020;-77
2023/12/25 13:42:12;;;;;;;;;;;11.50;95.60;;;;;;5058044;28;20257;-77
2023/12/25 13:44:37;;;;;;;;;;;11.50;95.60;;;;;;5056810;28;19912;-76
2023/12/25 13:47:03;;;;;;;;;;;11.50;95.70;;;;;;5074646;28;20241;-76
2023/12/25 13:49:29;;;;;;;;;;;11.50;95.70;;;;;;5058078;28;20051;-77
2023/12/25 13:51:54;;;;;;;;;;;11.40;95.70;;;;;;5092655;28;20011;-76
2023/12/25 13:54:20;;;;;;;;;;;11.40;95.60;;;;;;5074361;28;20044;-75
2023/12/25 13:56:45;;;;;;;;;;;11.40;95.70;;;;;;5074344;28;19912;-76
2023/12/25 13:59:11;;;;;;;;;;;11.50;95.80;;;;;;5074303;28;20443;-75
2023/12/25 14:01:37;;;;;;;;;;;11.50;95.80;;;;;;5074196;28;19995;-76
2023/12/25 14:04:02;;;;;;;;;;;11.50;95.80;;;;;;5074214;28;19939;-76
2023/12/25 14:06:28;;;;;;;;;;;11.60;95.80;;;;;;5057816;28;19940;-76
2023/12/25 14:08:53;;;;;;;;;;;11.60;95.70;;;;;;5074135;28;20371;-76